sensor_id;sensor_type;location;lat;lon;timestamp;pressure;altitude;pressure_sealevel;temperature;humidity
3780;BME280;1905;52.482;9.802;2023-02-10T00:01:22;102902.97;;;2.94;83.43
3780;BME280;1905;52.482;9.802;2023-02-10T00:03:50;102909.91;;;2.92;83.54
3780;BME280;1905;52.482;9.802;2023-02-10T00:06:19;102912.50;;;2.92;84.22
3780;BME280;1905;52.482;9.802;2023-02-10T00:08:49;102911.63;;;2.92;83.68
3780;BME280;1905;52.482;9.802;2023-02-10T00:11:17;102910.81;;;2.94;84.58
3780;BME280;1905;52.482;9.802;2023-02-10T00:13:45;102916.91;;;2.95;83.89
3780;BME280;1905;52.482;9.802;2023-02-10T00:16:14;102909.09;;;2.95;83.95
3780;BME280;1905;52.482;9.802;2023-02-10T00:18:43;102915.06;;;2.91;83.89
3780;BME280;1905;52.482;9.802;2023-02-10T00:21:15;102917.72;;;2.92;84.17
3780;BME280;1905;52.482;9.802;2023-02-10T00:23:43;102921.16;;;2.91;84.29
3780;BME280;1905;52.482;9.802;2023-02-10T00:26:12;102924.66;;;2.92;83.85
3780;BME280;1905;52.482;9.802;2023-02-10T00:28:42;102925.56;;;2.92;84.00
3780;BME280;1905;52.482;9.802;2023-02-10T00:31:11;102920.34;;;2.94;84.64
3780;BME280;1905;52.482;9.802;2023-02-10T00:33:40;102911.69;;;2.93;83.80
3780;BME280;1905;52.482;9.802;2023-02-10T00:36:11;102920.44;;;2.97;85.25
3780;BME280;1905;52.482;9.802;2023-02-10T00:38:40;102919.63;;;2.99;84.07
3780;BME280;1905;52.482;9.802;2023-02-10T00:41:10;102917.72;;;2.92;84.90
3780;BME280;1905;52.482;9.802;2023-02-10T00:43:38;102932.56;;;2.95;85.33
3780;BME280;1905;52.482;9.802;2023-02-10T00:46:06;102929.13;;;2.96;85.10
3780;BME280;1905;52.482;9.802;2023-02-10T00:48:36;102931.75;;;2.97;84.71
3780;BME280;1905;52.482;9.802;2023-02-10T00:51:04;102929.06;;;2.94;84.92
3780;BME280;1905;52.482;9.802;2023-02-10T00:53:34;102932.56;;;2.95;84.95
3780;BME280;1905;52.482;9.802;2023-02-10T00:56:02;102936.00;;;2.94;85.72
3780;BME280;1905;52.482;9.802;2023-02-10T00:58:30;102929.97;;;2.96;85.86
3780;BME280;1905;52.482;9.802;2023-02-10T01:00:57;102936.97;;;2.97;84.88
3780;BME280;1905;52.482;9.802;2023-02-10T01:03:26;102936.91;;;2.94;85.21
3780;BME280;1905;52.482;9.802;2023-02-10T01:05:53;102940.50;;;2.99;86.03
3780;BME280;1905;52.482;9.802;2023-02-10T01:08:21;102936.97;;;2.96;86.04
3780;BME280;1905;52.482;9.802;2023-02-10T01:10:57;102930.06;;;2.99;85.53
3780;BME280;1905;52.482;9.802;2023-02-10T01:13:25;102936.16;;;2.98;85.46
3780;BME280;1905;52.482;9.802;2023-02-10T01:15:53;102938.75;;;2.98;85.59
3780;BME280;1905;52.482;9.802;2023-02-10T01:18:21;102937.06;;;3.00;85.70
3780;BME280;1905;52.482;9.802;2023-02-10T01:20:49;102940.56;;;3.03;86.02
3780;BME280;1905;52.482;9.802;2023-02-10T01:23:16;102935.34;;;3.03;86.28
3780;BME280;1905;52.482;9.802;2023-02-10T01:25:44;102938.88;;;3.05;86.00
3780;BME280;1905;52.482;9.802;2023-02-10T01:28:13;102934.63;;;3.08;85.18
3780;BME280;1905;52.482;9.802;2023-02-10T01:30:43;102933.81;;;3.11;85.44
3780;BME280;1905;52.482;9.802;2023-02-10T01:33:11;102926.03;;;3.12;85.39
3780;BME280;1905;52.482;9.802;2023-02-10T01:35:38;102916.41;;;3.11;86.25
3780;BME280;1905;52.482;9.802;2023-02-10T01:38:06;102920.81;;;3.12;86.41
3780;BME280;1905;52.482;9.802;2023-02-10T01:40:34;102923.38;;;3.11;85.49
3780;BME280;1905;52.482;9.802;2023-02-10T01:43:02;102913.88;;;3.14;85.44
3780;BME280;1905;52.482;9.802;2023-02-10T01:45:33;102924.31;;;3.14;85.89
3780;BME280;1905;52.482;9.802;2023-02-10T01:48:03;102920.00;;;3.15;85.53
3780;BME280;1905;52.482;9.802;2023-02-10T01:50:35;102926.09;;;3.15;86.51
3780;BME280;1905;52.482;9.802;2023-02-10T01:53:04;102926.94;;;3.16;86.59
3780;BME280;1905;52.482;9.802;2023-02-10T01:55:35;102922.63;;;3.16;85.70
3780;BME280;1905;52.482;9.802;2023-02-10T01:58:06;102926.09;;;3.15;85.13
3780;BME280;1905;52.482;9.802;2023-02-10T02:01:01;102925.28;;;3.18;85.96
3780;BME280;1905;52.482;9.802;2023-02-10T02:03:29;102913.91;;;3.16;85.66
3780;BME280;1905;52.482;9.802;2023-02-10T02:05:56;102916.56;;;3.17;86.13
3780;BME280;1905;52.482;9.802;2023-02-10T02:08:26;102913.06;;;3.17;86.60
3780;BME280;1905;52.482;9.802;2023-02-10T02:11:06;102921.81;;;3.19;85.90
3780;BME280;1905;52.482;9.802;2023-02-10T02:13:51;102922.69;;;3.18;86.43
3780;BME280;1905;52.482;9.802;2023-02-10T02:16:31;102925.31;;;3.21;86.05
3780;BME280;1905;52.482;9.802;2023-02-10T02:19:15;102923.59;;;3.20;85.55
3780;BME280;1905;52.482;9.802;2023-02-10T02:22:21;102925.31;;;3.21;86.79
3780;BME280;1905;52.482;9.802;2023-02-10T02:25:12;102928.81;;;3.21;86.74
3780;BME280;1905;52.482;9.802;2023-02-10T02:27:51;102917.50;;;3.21;86.05
3780;BME280;1905;52.482;9.802;2023-02-10T02:33:47;102920.19;;;3.24;86.22
3780;BME280;1905;52.482;9.802;2023-02-10T02:36:20;102921.94;;;3.25;86.49
3780;BME280;1905;52.482;9.802;2023-02-10T02:38:50;102919.34;;;3.25;86.25
3780;BME280;1905;52.482;9.802;2023-02-10T02:41:22;102910.69;;;3.27;86.04
3780;BME280;1905;52.482;9.802;2023-02-10T02:43:51;102913.34;;;3.29;86.33
3780;BME280;1905;52.482;9.802;2023-02-10T02:46:28;102910.69;;;3.27;86.46
3780;BME280;1905;52.482;9.802;2023-02-10T02:49:06;102913.28;;;3.26;87.17
3780;BME280;1905;52.482;9.802;2023-02-10T02:51:42;102904.69;;;3.31;87.10
3780;BME280;1905;52.482;9.802;2023-02-10T02:54:22;102909.94;;;3.33;86.66
3780;BME280;1905;52.482;9.802;2023-02-10T02:56:58;102903.75;;;3.29;86.41
3780;BME280;1905;52.482;9.802;2023-02-10T02:59:33;102909.88;;;3.30;87.22
3780;BME280;1905;52.482;9.802;2023-02-10T03:02:06;102909.03;;;3.31;87.05
3780;BME280;1905;52.482;9.802;2023-02-10T03:04:39;102906.44;;;3.31;86.33
3780;BME280;1905;52.482;9.802;2023-02-10T03:07:07;102904.66;;;3.30;86.94
3780;BME280;1905;52.482;9.802;2023-02-10T03:09:35;102923.03;;;3.34;86.51
3780;BME280;1905;52.482;9.802;2023-02-10T03:12:03;102916.00;;;3.32;86.44
3780;BME280;1905;52.482;9.802;2023-02-10T03:14:31;102911.72;;;3.34;87.12
3780;BME280;1905;52.482;9.802;2023-02-10T03:16:59;102915.25;;;3.36;86.68
3780;BME280;1905;52.482;9.802;2023-02-10T03:19:26;102909.13;;;3.35;87.01
3780;BME280;1905;52.482;9.802;2023-02-10T03:21:55;102919.56;;;3.34;86.87
3780;BME280;1905;52.482;9.802;2023-02-10T03:24:23;102916.19;;;3.39;86.88
3780;BME280;1905;52.482;9.802;2023-02-10T03:26:51;102922.25;;;3.37;87.89
3780;BME280;1905;52.482;9.802;2023-02-10T03:29:18;102924.03;;;3.39;87.30
3780;BME280;1905;52.482;9.802;2023-02-10T03:31:46;102926.66;;;3.39;87.42
3780;BME280;1905;52.482;9.802;2023-02-10T03:34:13;102928.38;;;3.40;87.28
3780;BME280;1905;52.482;9.802;2023-02-10T03:36:41;102917.06;;;3.40;87.14
3780;BME280;1905;52.482;9.802;2023-02-10T03:39:10;102918.00;;;3.42;87.88
3780;BME280;1905;52.482;9.802;2023-02-10T03:41:37;102927.56;;;3.43;87.71
3780;BME280;1905;52.482;9.802;2023-02-10T03:44:05;102920.69;;;3.48;86.76
3780;BME280;1905;52.482;9.802;2023-02-10T03:46:35;102927.53;;;3.41;87.52
3780;BME280;1905;52.482;9.802;2023-02-10T03:49:04;102925.03;;;3.46;87.45
3780;BME280;1905;52.482;9.802;2023-02-10T03:51:32;102919.81;;;3.46;87.90
3780;BME280;1905;52.482;9.802;2023-02-10T03:53:59;102924.25;;;3.50;87.48
3780;BME280;1905;52.482;9.802;2023-02-10T03:56:28;102914.69;;;3.50;88.20
3780;BME280;1905;52.482;9.802;2023-02-10T03:58:56;102926.00;;;3.51;86.88
3780;BME280;1905;52.482;9.802;2023-02-10T04:01:23;102923.38;;;3.51;87.73
3780;BME280;1905;52.482;9.802;2023-02-10T04:03:51;102927.00;;;3.56;87.38
3780;BME280;1905;52.482;9.802;2023-02-10T04:06:18;102931.44;;;3.60;87.09
3780;BME280;1905;52.482;9.802;2023-02-10T04:08:46;102933.22;;;3.61;87.41
3780;BME280;1905;52.482;9.802;2023-02-10T04:11:15;102926.19;;;3.58;87.81
3780;BME280;1905;52.482;9.802;2023-02-10T04:13:44;102932.31;;;3.60;87.68
3780;BME280;1905;52.482;9.802;2023-02-10T04:16:13;102927.03;;;3.59;86.95
3780;BME280;1905;52.482;9.802;2023-02-10T04:18:42;102920.97;;;3.60;87.26
3780;BME280;1905;52.482;9.802;2023-02-10T04:21:11;102927.97;;;3.61;87.06
3780;BME280;1905;52.482;9.802;2023-02-10T04:23:38;102920.97;;;3.60;87.64
3780;BME280;1905;52.482;9.802;2023-02-10T04:26:06;102925.44;;;3.64;87.97
3780;BME280;1905;52.482;9.802;2023-02-10T04:28:34;102913.28;;;3.66;87.87
3780;BME280;1905;52.482;9.802;2023-02-10T04:31:03;102908.88;;;3.65;87.82
3780;BME280;1905;52.482;9.802;2023-02-10T04:33:31;102919.34;;;3.65;87.67
3780;BME280;1905;52.482;9.802;2023-02-10T04:35:59;102919.34;;;3.65;86.86
3780;BME280;1905;52.482;9.802;2023-02-10T04:38:29;102922.84;;;3.67;87.11
3780;BME280;1905;52.482;9.802;2023-02-10T04:40:57;102922.00;;;3.67;87.16
3780;BME280;1905;52.482;9.802;2023-02-10T04:43:24;102917.63;;;3.67;87.43
3780;BME280;1905;52.482;9.802;2023-02-10T04:45:51;102915.13;;;3.72;86.81
3780;BME280;1905;52.482;9.802;2023-02-10T04:48:20;102914.19;;;3.68;87.87
3780;BME280;1905;52.482;9.802;2023-02-10T04:50:48;102921.19;;;3.69;87.34
3780;BME280;1905;52.482;9.802;2023-02-10T04:53:16;102925.53;;;3.69;86.86
3780;BME280;1905;52.482;9.802;2023-02-10T04:55:43;102921.13;;;3.66;87.67
3780;BME280;1905;52.482;9.802;2023-02-10T04:58:12;102923.81;;;3.71;87.99
3780;BME280;1905;52.482;9.802;2023-02-10T05:00:39;102921.13;;;3.66;88.23
3780;BME280;1905;52.482;9.802;2023-02-10T05:03:06;102922.84;;;3.67;87.42
3780;BME280;1905;52.482;9.802;2023-02-10T05:05:35;102933.31;;;3.67;87.48
3780;BME280;1905;52.482;9.802;2023-02-10T05:08:03;102931.56;;;3.66;87.66
3780;BME280;1905;52.482;9.802;2023-02-10T05:10:30;102929.84;;;3.68;88.14
3780;BME280;1905;52.482;9.802;2023-02-10T05:12:58;102931.56;;;3.66;88.46
3780;BME280;1905;52.482;9.802;2023-02-10T05:15:25;102932.47;;;3.70;88.29
3780;BME280;1905;52.482;9.802;2023-02-10T05:17:53;102931.56;;;3.66;88.19
3780;BME280;1905;52.482;9.802;2023-02-10T05:20:20;102933.38;;;3.70;87.74
3780;BME280;1905;52.482;9.802;2023-02-10T05:22:49;102934.25;;;3.69;88.02
3780;BME280;1905;52.482;9.802;2023-02-10T05:25:17;102928.16;;;3.70;87.96
3780;BME280;1905;52.482;9.802;2023-02-10T05:27:44;102929.94;;;3.71;87.92
3780;BME280;1905;52.482;9.802;2023-02-10T05:30:12;102943.00;;;3.71;88.02
3780;BME280;1905;52.482;9.802;2023-02-10T05:32:40;102940.31;;;3.68;87.55
3780;BME280;1905;52.482;9.802;2023-02-10T05:35:08;102942.94;;;3.70;86.97
3780;BME280;1905;52.482;9.802;2023-02-10T05:37:36;102942.91;;;3.67;87.67
3780;BME280;1905;52.482;9.802;2023-02-10T05:40:06;102942.91;;;3.67;87.92
3780;BME280;1905;52.482;9.802;2023-02-10T05:42:33;102939.34;;;3.63;86.99
3780;BME280;1905;52.482;9.802;2023-02-10T05:45:01;102943.66;;;3.61;86.96
3780;BME280;1905;52.482;9.802;2023-02-10T05:47:29;102940.09;;;3.59;86.96
3780;BME280;1905;52.482;9.802;2023-02-10T05:49:56;102948.00;;;3.60;86.93
3780;BME280;1905;52.482;9.802;2023-02-10T05:52:24;102949.72;;;3.61;87.76
3780;BME280;1905;52.482;9.802;2023-02-10T05:54:51;102948.81;;;3.58;87.55
3780;BME280;1905;52.482;9.802;2023-02-10T05:57:20;102954.84;;;3.55;87.27
3780;BME280;1905;52.482;9.802;2023-02-10T05:59:48;102962.63;;;3.54;87.28
3780;BME280;1905;52.482;9.802;2023-02-10T06:02:15;102963.44;;;3.50;87.63
3780;BME280;1905;52.482;9.802;2023-02-10T06:04:43;102967.78;;;3.51;86.36
3780;BME280;1905;52.482;9.802;2023-02-10T06:07:11;102964.28;;;3.49;86.88
3780;BME280;1905;52.482;9.802;2023-02-10T06:09:38;102974.66;;;3.46;86.56
3780;BME280;1905;52.482;9.802;2023-02-10T06:12:10;102978.06;;;3.42;87.16
3780;BME280;1905;52.482;9.802;2023-02-10T06:14:39;102977.97;;;3.39;87.29
3780;BME280;1905;52.482;9.802;2023-02-10T06:17:09;102984.84;;;3.34;86.72
3780;BME280;1905;52.482;9.802;2023-02-10T06:19:42;102983.84;;;3.29;86.97
3780;BME280;1905;52.482;9.802;2023-02-10T06:22:10;102987.31;;;3.29;86.26
3780;BME280;1905;52.482;9.802;2023-02-10T06:24:37;102989.84;;;3.26;86.79
3780;BME280;1905;52.482;9.802;2023-02-10T06:27:05;102995.81;;;3.21;86.70
3780;BME280;1905;52.482;9.802;2023-02-10T06:29:33;102998.41;;;3.21;86.22
3780;BME280;1905;52.482;9.802;2023-02-10T06:32:02;103001.00;;;3.19;87.03
3780;BME280;1905;52.482;9.802;2023-02-10T06:34:29;103005.25;;;3.16;86.29
3780;BME280;1905;52.482;9.802;2023-02-10T06:36:57;103007.03;;;3.17;86.75
3780;BME280;1905;52.482;9.802;2023-02-10T06:39:25;103016.50;;;3.13;87.38
3780;BME280;1905;52.482;9.802;2023-02-10T06:41:52;103022.53;;;3.11;87.21
3780;BME280;1905;52.482;9.802;2023-02-10T06:44:20;103027.69;;;3.08;86.82
3780;BME280;1905;52.482;9.802;2023-02-10T06:46:47;103022.47;;;3.08;87.16
3780;BME280;1905;52.482;9.802;2023-02-10T06:49:16;103035.34;;;3.00;86.85
3780;BME280;1905;52.482;9.802;2023-02-10T06:51:43;103032.78;;;3.02;87.56
3780;BME280;1905;52.482;9.802;2023-02-10T06:54:12;103031.00;;;3.00;86.79
3780;BME280;1905;52.482;9.802;2023-02-10T06:56:39;103033.78;;;3.07;87.18
3780;BME280;1905;52.482;9.802;2023-02-10T06:59:08;103030.13;;;3.00;87.20
3780;BME280;1905;52.482;9.802;2023-02-10T07:01:35;103025.69;;;2.97;86.82
3780;BME280;1905;52.482;9.802;2023-02-10T07:04:04;103023.88;;;2.93;87.58
3780;BME280;1905;52.482;9.802;2023-02-10T07:06:32;103020.41;;;2.94;87.72
3780;BME280;1905;52.482;9.802;2023-02-10T07:09:00;103014.28;;;2.92;86.59
3780;BME280;1905;52.482;9.802;2023-02-10T07:11:30;103015.09;;;2.91;87.47
3780;BME280;1905;52.482;9.802;2023-02-10T07:13:57;103010.75;;;2.90;87.30
3780;BME280;1905;52.482;9.802;2023-02-10T07:16:26;103019.41;;;2.89;87.45
3780;BME280;1905;52.482;9.802;2023-02-10T07:18:56;103013.28;;;2.87;87.40
3780;BME280;1905;52.482;9.802;2023-02-10T07:21:23;103018.34;;;2.81;87.67
3780;BME280;1905;52.482;9.802;2023-02-10T07:23:52;103023.72;;;2.87;87.17
3780;BME280;1905;52.482;9.802;2023-02-10T07:26:20;103025.38;;;2.85;87.78
3780;BME280;1905;52.482;9.802;2023-02-10T07:28:47;103027.97;;;2.84;86.75
3780;BME280;1905;52.482;9.802;2023-02-10T07:31:15;103023.56;;;2.81;87.35
3780;BME280;1905;52.482;9.802;2023-02-10T07:33:43;103033.16;;;2.82;88.15
3780;BME280;1905;52.482;9.802;2023-02-10T07:36:10;103028.84;;;2.84;87.56
3780;BME280;1905;52.482;9.802;2023-02-10T07:38:38;103031.41;;;2.83;86.67
3780;BME280;1905;52.482;9.802;2023-02-10T07:41:07;103033.97;;;2.81;86.84
3780;BME280;1905;52.482;9.802;2023-02-10T07:43:35;103034.88;;;2.82;87.59
3780;BME280;1905;52.482;9.802;2023-02-10T07:46:09;103046.19;;;2.82;86.95
3780;BME280;1905;52.482;9.802;2023-02-10T07:48:36;103039.19;;;2.81;86.61
3780;BME280;1905;52.482;9.802;2023-02-10T07:51:04;103039.19;;;2.81;87.33
3780;BME280;1905;52.482;9.802;2023-02-10T07:53:32;103040.09;;;2.82;86.67
3780;BME280;1905;52.482;9.802;2023-02-10T07:55:59;103039.28;;;2.84;87.58
3780;BME280;1905;52.482;9.802;2023-02-10T07:58:32;103047.94;;;2.83;87.93
3780;BME280;1905;52.482;9.802;2023-02-10T08:00:59;103046.25;;;2.85;87.81
3780;BME280;1905;52.482;9.802;2023-02-10T08:03:27;103037.59;;;2.86;87.96
3780;BME280;1905;52.482;9.802;2023-02-10T08:05:54;103044.66;;;2.90;88.04
3780;BME280;1905;52.482;9.802;2023-02-10T08:08:22;103044.66;;;2.90;88.00
3780;BME280;1905;52.482;9.802;2023-02-10T08:10:49;103044.66;;;2.90;88.29
3780;BME280;1905;52.482;9.802;2023-02-10T08:13:16;103049.97;;;2.93;88.50
3780;BME280;1905;52.482;9.802;2023-02-10T08:15:45;103047.50;;;2.99;88.92
3780;BME280;1905;52.482;9.802;2023-02-10T08:18:14;103051.81;;;2.97;88.52
3780;BME280;1905;52.482;9.802;2023-02-10T08:20:42;103049.22;;;2.99;88.01
3780;BME280;1905;52.482;9.802;2023-02-10T08:23:13;103053.66;;;3.02;88.65
3780;BME280;1905;52.482;9.802;2023-02-10T08:25:41;103053.66;;;3.02;88.64
3780;BME280;1905;52.482;9.802;2023-02-10T08:28:09;103060.72;;;3.06;88.08
3780;BME280;1905;52.482;9.802;2023-02-10T08:30:37;103065.09;;;3.07;87.48
3780;BME280;1905;52.482;9.802;2023-02-10T08:33:06;103072.13;;;3.09;87.95
3780;BME280;1905;52.482;9.802;2023-02-10T08:35:35;103069.44;;;3.08;88.81
3780;BME280;1905;52.482;9.802;2023-02-10T08:38:03;103055.56;;;3.09;87.74
3780;BME280;1905;52.482;9.802;2023-02-10T08:40:32;103066.09;;;3.12;88.46
3780;BME280;1905;52.482;9.802;2023-02-10T08:43:00;103063.47;;;3.12;88.78
3780;BME280;1905;52.482;9.802;2023-02-10T08:45:28;103063.47;;;3.12;89.10
3780;BME280;1905;52.482;9.802;2023-02-10T08:47:56;103076.59;;;3.15;89.14
3780;BME280;1905;52.482;9.802;2023-02-10T08:50:25;103075.81;;;3.17;88.89
3780;BME280;1905;52.482;9.802;2023-02-10T08:52:52;103071.47;;;3.18;88.75
3780;BME280;1905;52.482;9.802;2023-02-10T08:55:20;103078.44;;;3.19;89.36
3780;BME280;1905;52.482;9.802;2023-02-10T08:57:47;103079.31;;;3.19;89.12
3780;BME280;1905;52.482;9.802;2023-02-10T09:00:15;103076.72;;;3.21;89.33
3780;BME280;1905;52.482;9.802;2023-02-10T09:02:43;103077.78;;;3.27;89.28
3780;BME280;1905;52.482;9.802;2023-02-10T09:05:10;103070.06;;;3.32;90.49
3780;BME280;1905;52.482;9.802;2023-02-10T09:07:39;103077.97;;;3.35;89.65
3780;BME280;1905;52.482;9.802;2023-02-10T09:10:09;103072.81;;;3.38;90.70
3780;BME280;1905;52.482;9.802;2023-02-10T09:12:37;103066.91;;;3.45;90.20
3780;BME280;1905;52.482;9.802;2023-02-10T09:15:05;103069.56;;;3.48;90.61
3780;BME280;1905;52.482;9.802;2023-02-10T09:17:33;103068.81;;;3.52;90.96
3780;BME280;1905;52.482;9.802;2023-02-10T09:20:01;103070.59;;;3.53;89.80
3780;BME280;1905;52.482;9.802;2023-02-10T09:22:29;103072.50;;;3.60;90.53
3780;BME280;1905;52.482;9.802;2023-02-10T09:24:58;103072.63;;;3.66;90.82
3780;BME280;1905;52.482;9.802;2023-02-10T09:27:26;103068.41;;;3.73;90.84
3780;BME280;1905;52.482;9.802;2023-02-10T09:29:53;103079.00;;;3.77;90.59
3780;BME280;1905;52.482;9.802;2023-02-10T09:32:20;103083.44;;;3.81;89.30
3780;BME280;1905;52.482;9.802;2023-02-10T09:34:48;103072.16;;;3.84;89.88
3780;BME280;1905;52.482;9.802;2023-02-10T09:37:15;103073.13;;;3.87;91.04
3780;BME280;1905;52.482;9.802;2023-02-10T09:39:43;103072.34;;;3.91;90.23
3780;BME280;1905;52.482;9.802;2023-02-10T09:42:18;103074.97;;;3.91;90.37
3780;BME280;1905;52.482;9.802;2023-02-10T09:44:52;103082.00;;;3.95;89.86
3780;BME280;1905;52.482;9.802;2023-02-10T09:47:32;103091.72;;;4.01;90.42
3780;BME280;1905;52.482;9.802;2023-02-10T09:50:13;103101.34;;;4.03;89.88
3780;BME280;1905;52.482;9.802;2023-02-10T09:52:59;103093.59;;;4.06;89.93
3780;BME280;1905;52.482;9.802;2023-02-10T09:55:31;103094.47;;;4.07;89.48
3780;BME280;1905;52.482;9.802;2023-02-10T09:58:05;103091.94;;;4.11;90.46
3780;BME280;1905;52.482;9.802;2023-02-10T10:00:40;103084.19;;;4.14;90.18
3780;BME280;1905;52.482;9.802;2023-02-10T10:03:13;103090.38;;;4.19;90.09
3780;BME280;1905;52.482;9.802;2023-02-10T10:05:46;103089.53;;;4.20;90.52
3780;BME280;1905;52.482;9.802;2023-02-10T10:08:22;103087.84;;;4.24;89.75
3780;BME280;1905;52.482;9.802;2023-02-10T10:10:56;103094.09;;;4.31;89.52
3780;BME280;1905;52.482;9.802;2023-02-10T10:13:29;103095.16;;;4.39;89.99
3780;BME280;1905;52.482;9.802;2023-02-10T10:16:07;103094.41;;;4.46;90.13
3780;BME280;1905;52.482;9.802;2023-02-10T10:18:47;103091.84;;;4.49;89.59
3780;BME280;1905;52.482;9.802;2023-02-10T10:21:26;103098.16;;;4.58;89.58
3780;BME280;1905;52.482;9.802;2023-02-10T10:24:08;103095.69;;;4.66;89.37
3780;BME280;1905;52.482;9.802;2023-02-10T10:26:47;103080.91;;;4.68;89.34
3780;BME280;1905;52.482;9.802;2023-02-10T10:29:26;103086.31;;;4.75;88.52
3780;BME280;1905;52.482;9.802;2023-02-10T10:32:01;103089.84;;;4.79;88.68
3780;BME280;1905;52.482;9.802;2023-02-10T10:34:37;103091.69;;;4.83;88.53
3780;BME280;1905;52.482;9.802;2023-02-10T10:37:12;103089.19;;;4.89;88.78
3780;BME280;1905;52.482;9.802;2023-02-10T10:39:43;103088.28;;;4.89;88.88
3780;BME280;1905;52.482;9.802;2023-02-10T10:42:19;103084.09;;;4.98;88.30
3780;BME280;1905;52.482;9.802;2023-02-10T10:44:49;103086.75;;;5.01;87.88
3780;BME280;1905;52.482;9.802;2023-02-10T10:47:20;103075.44;;;5.02;88.27
3780;BME280;1905;52.482;9.802;2023-02-10T10:49:50;103072.97;;;5.11;87.96
3780;BME280;1905;52.482;9.802;2023-02-10T10:52:25;103066.88;;;5.12;87.96
3780;BME280;1905;52.482;9.802;2023-02-10T10:54:55;103067.84;;;5.17;87.80
3780;BME280;1905;52.482;9.802;2023-02-10T10:57:23;103066.19;;;5.22;87.87
3780;BME280;1905;52.482;9.802;2023-02-10T10:59:56;103067.91;;;5.20;87.92
3780;BME280;1905;52.482;9.802;2023-02-10T11:02:25;103065.44;;;5.29;87.61
3780;BME280;1905;52.482;9.802;2023-02-10T11:05:00;103053.19;;;5.28;87.51
3780;BME280;1905;52.482;9.802;2023-02-10T11:07:31;103054.97;;;5.31;87.87
3780;BME280;1905;52.482;9.802;2023-02-10T11:10:00;103056.75;;;5.33;87.23
3780;BME280;1905;52.482;9.802;2023-02-10T11:12:32;103052.41;;;5.35;87.00
3780;BME280;1905;52.482;9.802;2023-02-10T11:17:48;103053.41;;;5.43;86.81
3780;BME280;1905;52.482;9.802;2023-02-10T11:20:22;103054.31;;;5.44;87.21
3780;BME280;1905;52.482;9.802;2023-02-10T11:22:56;103052.63;;;5.49;86.67
3780;BME280;1905;52.482;9.802;2023-02-10T11:25:27;103050.94;;;5.53;86.75
3780;BME280;1905;52.482;9.802;2023-02-10T11:27:55;103042.28;;;5.57;86.70
3780;BME280;1905;52.482;9.802;2023-02-10T11:30:28;103043.97;;;5.55;86.62
3780;BME280;1905;52.482;9.802;2023-02-10T11:32:57;103045.81;;;5.60;86.44
3780;BME280;1905;52.482;9.802;2023-02-10T11:35:25;103041.47;;;5.61;86.24
3780;BME280;1905;52.482;9.802;2023-02-10T11:37:54;103042.44;;;5.67;86.37
3780;BME280;1905;52.482;9.802;2023-02-10T11:40:25;103046.84;;;5.70;86.37
3780;BME280;1905;52.482;9.802;2023-02-10T11:42:55;103050.34;;;5.72;86.60
3780;BME280;1905;52.482;9.802;2023-02-10T11:45:26;103046.94;;;5.79;86.12
3780;BME280;1905;52.482;9.802;2023-02-10T11:48:02;103044.31;;;5.76;86.24
3780;BME280;1905;52.482;9.802;2023-02-10T11:50:33;103038.19;;;5.77;86.16
3780;BME280;1905;52.482;9.802;2023-02-10T11:53:01;103040.91;;;5.83;86.13
3780;BME280;1905;52.482;9.802;2023-02-10T11:55:34;103038.38;;;5.87;86.40
3780;BME280;1905;52.482;9.802;2023-02-10T11:58:20;103038.47;;;5.92;86.19
3780;BME280;1905;52.482;9.802;2023-02-10T12:01:13;103041.94;;;5.92;85.53
3780;BME280;1905;52.482;9.802;2023-02-10T12:03:52;103038.41;;;5.89;85.82
3780;BME280;1905;52.482;9.802;2023-02-10T12:06:30;103035.00;;;5.96;85.73
3780;BME280;1905;52.482;9.802;2023-02-10T12:09:11;103034.16;;;5.97;84.96
3780;BME280;1905;52.482;9.802;2023-02-10T12:12:21;103040.34;;;6.02;85.51
3780;BME280;1905;52.482;9.802;2023-02-10T12:14:57;103027.25;;;6.05;85.53
3780;BME280;1905;52.482;9.802;2023-02-10T12:17:33;103035.13;;;6.05;85.47
3780;BME280;1905;52.482;9.802;2023-02-10T12:20:18;103029.97;;;6.11;85.44
3780;BME280;1905;52.482;9.802;2023-02-10T12:23:06;103022.13;;;6.16;85.65
3780;BME280;1905;52.482;9.802;2023-02-10T12:25:39;103022.13;;;6.16;86.21
3780;BME280;1905;52.482;9.802;2023-02-10T12:28:19;103019.53;;;6.17;85.16
3780;BME280;1905;52.482;9.802;2023-02-10T12:30:59;103024.81;;;6.20;85.62
3780;BME280;1905;52.482;9.802;2023-02-10T12:34:00;103012.66;;;6.28;84.03
3780;BME280;1905;52.482;9.802;2023-02-10T12:36:38;103024.13;;;6.35;85.33
3780;BME280;1905;52.482;9.802;2023-02-10T12:39:13;103012.78;;;6.37;85.05
3780;BME280;1905;52.482;9.802;2023-02-10T12:41:54;103013.59;;;6.33;85.22
3780;BME280;1905;52.482;9.802;2023-02-10T12:44:37;103012.78;;;6.37;84.46
3780;BME280;1905;52.482;9.802;2023-02-10T12:47:20;103000.53;;;6.39;84.44
3780;BME280;1905;52.482;9.802;2023-02-10T12:50:02;102997.97;;;6.42;84.43
3780;BME280;1905;52.482;9.802;2023-02-10T12:52:35;103004.09;;;6.44;84.40
3780;BME280;1905;52.482;9.802;2023-02-10T12:55:10;102991.00;;;6.47;84.70
3780;BME280;1905;52.482;9.802;2023-02-10T12:57:43;102992.84;;;6.56;84.01
3780;BME280;1905;52.482;9.802;2023-02-10T13:00:16;102984.97;;;6.54;83.98
3780;BME280;1905;52.482;9.802;2023-02-10T13:02:50;102979.75;;;6.57;84.27
3780;BME280;1905;52.482;9.802;2023-02-10T13:05:23;102981.56;;;6.63;84.31
3780;BME280;1905;52.482;9.802;2023-02-10T13:07:54;102983.34;;;6.66;84.11
3780;BME280;1905;52.482;9.802;2023-02-10T13:10:30;102981.63;;;6.71;83.52
3780;BME280;1905;52.482;9.802;2023-02-10T13:13:02;102965.88;;;6.71;83.31
3780;BME280;1905;52.482;9.802;2023-02-10T13:15:33;102976.38;;;6.71;83.36
3780;BME280;1905;52.482;9.802;2023-02-10T13:18:03;102958.88;;;6.73;83.29
3780;BME280;1905;52.482;9.802;2023-02-10T13:20:45;102971.16;;;6.77;84.58
3780;BME280;1905;52.482;9.802;2023-02-10T13:23:21;102956.31;;;6.80;83.34
3780;BME280;1905;52.482;9.802;2023-02-10T13:26:02;102965.97;;;6.83;83.04
3780;BME280;1905;52.482;9.802;2023-02-10T13:28:42;102960.75;;;6.86;83.04
3780;BME280;1905;52.482;9.802;2023-02-10T13:31:28;102950.22;;;6.83;83.44
3780;BME280;1905;52.482;9.802;2023-02-10T13:34:03;102945.84;;;6.83;81.96
3780;BME280;1905;52.482;9.802;2023-02-10T13:36:34;102954.59;;;6.85;81.87
3780;BME280;1905;52.482;9.802;2023-02-10T13:39:06;102950.22;;;6.86;83.21
3780;BME280;1905;52.482;9.802;2023-02-10T13:41:44;102952.91;;;6.92;83.07
3780;BME280;1905;52.482;9.802;2023-02-10T13:44:23;102943.28;;;6.91;83.47
3780;BME280;1905;52.482;9.802;2023-02-10T13:46:56;102950.25;;;6.89;83.18
3780;BME280;1905;52.482;9.802;2023-02-10T13:49:26;102940.69;;;6.97;83.63